createdAt,value
2022-12-25T00:01:36.068Z,6.23
2022-12-25T00:04:22.484Z,7.17
2022-12-25T00:07:10.136Z,5.93
2022-12-25T00:09:56.784Z,5.77
2022-12-25T00:12:43.150Z,5.60
2022-12-25T00:15:29.604Z,5.60
2022-12-25T00:18:16.006Z,5.93
2022-12-25T00:21:05.056Z,5.47
2022-12-25T00:23:56.141Z,5.30
2022-12-25T00:26:42.877Z,5.97
2022-12-25T00:29:29.157Z,5.27
2022-12-25T00:32:15.808Z,5.20
2022-12-25T00:35:02.466Z,6.27
2022-12-25T00:37:48.820Z,5.47
2022-12-25T00:40:43.131Z,4.40
2022-12-25T00:43:29.927Z,4.37
2022-12-25T00:46:16.507Z,5.33
2022-12-25T00:49:03.744Z,5.13
2022-12-25T00:51:50.605Z,4.43
2022-12-25T00:54:37.398Z,4.20
2022-12-25T00:57:25.030Z,4.63
2022-12-25T01:00:12.707Z,4.30
2022-12-25T01:02:59.267Z,4.17
2022-12-25T01:05:54.759Z,4.00
2022-12-25T01:09:03.432Z,4.07
2022-12-25T01:11:48.902Z,4.43
2022-12-25T01:14:36.545Z,4.03
2022-12-25T01:17:23.384Z,4.10
2022-12-25T01:20:11.062Z,4.03
2022-12-25T01:22:57.478Z,3.70
2022-12-25T01:25:43.999Z,4.00
2022-12-25T01:28:30.698Z,3.57
2022-12-25T01:31:21.095Z,3.40
2022-12-25T01:34:07.598Z,3.23
2022-12-25T01:36:53.993Z,3.77
2022-12-25T01:39:40.435Z,3.60
2022-12-25T01:42:26.744Z,3.60
2022-12-25T01:45:39.493Z,3.47
2022-12-25T01:48:31.919Z,3.90
2022-12-25T01:51:26.468Z,3.40
2022-12-25T01:54:17.160Z,3.73
2022-12-25T01:57:07.718Z,2.83
2022-12-25T01:59:56.140Z,3.37
2022-12-25T02:02:43.230Z,3.73
2022-12-25T02:05:33.255Z,3.43
2022-12-25T02:08:21.699Z,3.57
2022-12-25T02:11:30.846Z,3.67
2022-12-25T02:14:17.580Z,3.27
2022-12-25T02:17:13.261Z,3.13
2022-12-25T02:20:27.551Z,4.13
2022-12-25T02:24:01.966Z,3.77
2022-12-25T02:27:13.037Z,3.60
2022-12-25T02:30:05.288Z,3.37
2022-12-25T02:33:19.545Z,3.57
2022-12-25T02:36:10.818Z,3.60
2022-12-25T02:39:24.328Z,3.27
2022-12-25T02:42:16.229Z,3.63
2022-12-25T02:45:22.286Z,3.43
2022-12-25T02:48:29.357Z,3.40
2022-12-25T02:51:36.674Z,2.80
2022-12-25T02:54:45.495Z,3.27
2022-12-25T02:57:53.275Z,2.73
2022-12-25T03:01:03.443Z,2.73
2022-12-25T03:04:11.158Z,2.80
2022-12-25T03:07:05.468Z,2.73
2022-12-25T03:10:13.536Z,2.30
2022-12-25T03:13:05.825Z,2.40
2022-12-25T03:16:11.421Z,2.43
2022-12-25T03:18:59.566Z,2.90
2022-12-25T03:22:03.596Z,2.93
2022-12-25T03:25:08.622Z,3.00
2022-12-25T03:27:57.237Z,3.13
2022-12-25T03:31:07.494Z,3.00
2022-12-25T03:34:25.597Z,2.67
2022-12-25T03:37:50.066Z,3.17
2022-12-25T03:41:03.373Z,3.57
2022-12-25T03:44:12.929Z,2.73
2022-12-25T03:47:36.933Z,3.50
2022-12-25T03:50:49.342Z,3.53
2022-12-25T03:53:58.412Z,3.30
2022-12-25T03:57:02.815Z,3.60
2022-12-25T04:00:07.014Z,3.57
2022-12-25T04:03:11.051Z,3.77
2022-12-25T04:06:16.317Z,3.97
2022-12-25T04:09:20.401Z,3.87
2022-12-25T04:12:25.445Z,4.03
2022-12-25T04:15:30.081Z,4.10
2022-12-25T04:18:33.942Z,3.70
2022-12-25T04:21:39.625Z,3.93
2022-12-25T04:24:43.553Z,3.80
2022-12-25T04:27:47.623Z,4.33
2022-12-25T04:30:51.758Z,3.73
2022-12-25T04:33:55.841Z,3.77
2022-12-25T04:36:43.791Z,4.50
2022-12-25T04:39:30.452Z,4.23
2022-12-25T04:42:17.085Z,3.80
2022-12-25T04:45:03.387Z,4.40
2022-12-25T04:47:49.807Z,5.00
2022-12-25T04:50:36.256Z,3.40
2022-12-25T04:53:24.370Z,4.37
2022-12-25T04:56:10.848Z,4.20
2022-12-25T04:58:57.610Z,4.67
2022-12-25T05:01:44.338Z,3.30
2022-12-25T05:04:30.759Z,3.70
2022-12-25T05:07:17.670Z,3.53
2022-12-25T05:10:05.869Z,3.50
2022-12-25T05:12:52.159Z,4.10
2022-12-25T05:15:41.027Z,3.67
2022-12-25T05:18:28.185Z,3.50
2022-12-25T05:21:14.982Z,3.37
2022-12-25T05:24:01.386Z,3.97
2022-12-25T05:26:49.104Z,4.07
2022-12-25T05:29:35.901Z,4.27
2022-12-25T05:32:22.110Z,4.07
2022-12-25T05:35:09.379Z,3.57
2022-12-25T05:37:55.792Z,3.27
2022-12-25T05:40:42.218Z,3.73
2022-12-25T05:43:30.531Z,3.80
2022-12-25T05:46:17.895Z,3.37
2022-12-25T05:49:05.692Z,4.10
2022-12-25T05:51:53.248Z,3.50
2022-12-25T05:54:39.954Z,3.50
2022-12-25T05:57:26.679Z,4.10
2022-12-25T06:00:15.257Z,3.57
2022-12-25T06:03:02.110Z,3.43
2022-12-25T06:05:50.228Z,3.27
2022-12-25T06:08:36.915Z,3.20
2022-12-25T06:11:23.549Z,4.50
2022-12-25T06:14:13.048Z,3.30
2022-12-25T06:17:01.103Z,3.57
2022-12-25T06:19:47.716Z,3.03
2022-12-25T06:22:35.495Z,3.30
2022-12-25T06:25:22.514Z,3.47
2022-12-25T06:28:09.156Z,3.10
2022-12-25T06:30:55.826Z,3.57
2022-12-25T06:33:43.747Z,3.53
2022-12-25T06:36:30.549Z,3.53
2022-12-25T06:39:17.257Z,2.90
2022-12-25T06:42:04.001Z,3.43
2022-12-25T06:44:51.077Z,3.70
2022-12-25T06:47:38.634Z,3.27
2022-12-25T06:50:26.449Z,3.50
2022-12-25T06:53:12.768Z,3.90
2022-12-25T06:56:04.232Z,3.63
2022-12-25T06:58:52.809Z,3.10
2022-12-25T07:01:46.498Z,3.27
2022-12-25T07:04:38.173Z,3.33
2022-12-25T07:07:25.991Z,3.83
2022-12-25T07:10:12.924Z,3.33
2022-12-25T07:12:59.610Z,3.40
2022-12-25T07:15:45.969Z,3.10
2022-12-25T07:18:33.024Z,3.77
2022-12-25T07:21:21.500Z,3.60
2022-12-25T07:24:10.764Z,3.57
2022-12-25T07:26:57.481Z,3.73
2022-12-25T07:29:43.805Z,3.50
2022-12-25T07:32:31.560Z,3.10
2022-12-25T07:35:17.809Z,3.60
2022-12-25T07:38:04.221Z,3.73
2022-12-25T07:40:52.076Z,3.50
2022-12-25T07:43:38.873Z,3.63
2022-12-25T07:46:25.573Z,2.77
2022-12-25T07:49:13.379Z,2.93
2022-12-25T07:51:59.787Z,3.17
2022-12-25T07:54:46.119Z,5.17
2022-12-25T07:57:35.909Z,4.40
2022-12-25T08:00:23.164Z,4.70
2022-12-25T08:03:09.885Z,4.27
2022-12-25T08:05:59.640Z,3.50
2022-12-25T08:08:46.456Z,4.10
2022-12-25T08:11:33.297Z,3.40
2022-12-25T08:14:21.308Z,3.67
2022-12-25T08:17:07.787Z,3.77
2022-12-25T08:19:54.717Z,3.77
2022-12-25T08:22:41.080Z,4.03
2022-12-25T08:25:27.470Z,3.30
2022-12-25T08:28:14.003Z,4.60
2022-12-25T08:31:06.897Z,3.70
2022-12-25T08:33:55.611Z,3.33
2022-12-25T08:36:42.240Z,4.00
2022-12-25T08:39:28.824Z,3.83
2022-12-25T08:42:15.833Z,3.90
2022-12-25T08:45:02.204Z,3.53
2022-12-25T08:47:54.393Z,3.50
2022-12-25T08:50:40.729Z,3.80
2022-12-25T08:53:27.070Z,3.80
2022-12-25T08:56:14.543Z,3.17
2022-12-25T08:59:01.249Z,3.83
2022-12-25T09:01:47.796Z,3.50
2022-12-25T09:04:35.773Z,3.63
2022-12-25T09:07:22.472Z,3.57
2022-12-25T09:10:09.981Z,3.53
2022-12-25T09:12:56.569Z,3.63
2022-12-25T09:15:43.040Z,4.00
2022-12-25T09:18:30.109Z,3.43
2022-12-25T09:21:18.764Z,4.27
2022-12-25T09:24:05.422Z,4.47
2022-12-25T09:26:52.849Z,4.77
2022-12-25T09:29:40.536Z,4.10
2022-12-25T09:32:26.884Z,4.23
2022-12-25T09:35:13.960Z,3.60
2022-12-25T09:38:01.762Z,3.63
2022-12-25T09:40:48.489Z,3.90
2022-12-25T09:43:40.436Z,3.90
2022-12-25T09:46:36.394Z,4.10
2022-12-25T09:49:33.980Z,3.90
2022-12-25T09:52:24.592Z,4.70
2022-12-25T09:55:19.915Z,4.17
2022-12-25T09:58:13.430Z,3.90
2022-12-25T10:01:09.188Z,4.30
2022-12-25T10:04:09.476Z,4.07
2022-12-25T10:07:06.539Z,4.30
2022-12-25T10:10:04.062Z,4.47
2022-12-25T10:13:01.788Z,4.20
2022-12-25T10:15:55.614Z,5.13
2022-12-25T10:19:04.268Z,4.33
2022-12-25T10:21:55.566Z,4.70
2022-12-25T10:24:48.635Z,4.03
2022-12-25T10:27:39.770Z,5.47
2022-12-25T10:30:29.542Z,4.93
2022-12-25T10:33:17.319Z,5.27
2022-12-25T10:36:06.828Z,4.73
2022-12-25T10:38:54.886Z,4.40
2022-12-25T10:41:57.723Z,4.30
2022-12-25T10:44:55.873Z,4.20
2022-12-25T10:47:43.959Z,4.43
2022-12-25T10:50:30.978Z,3.50
2022-12-25T10:53:21.482Z,4.73
2022-12-25T10:56:09.218Z,4.50
2022-12-25T10:59:06.289Z,3.90
2022-12-25T11:01:55.438Z,3.63
2022-12-25T11:04:44.153Z,4.27
2022-12-25T11:07:32.187Z,4.40
2022-12-25T11:10:23.031Z,4.30
2022-12-25T11:13:20.286Z,4.13
2022-12-25T11:16:10.649Z,3.70
2022-12-25T11:18:58.070Z,4.03
2022-12-25T11:21:52.159Z,3.90
2022-12-25T11:24:38.468Z,3.90
2022-12-25T11:27:27.614Z,4.17
2022-12-25T11:30:16.508Z,3.97
2022-12-25T11:33:07.904Z,3.93
2022-12-25T11:35:56.869Z,3.87
2022-12-25T11:38:44.819Z,3.50
2022-12-25T11:41:35.040Z,4.17
2022-12-25T11:44:41.859Z,3.20
2022-12-25T11:47:34.702Z,4.07
2022-12-25T11:50:28.397Z,4.30
2022-12-25T11:53:20.253Z,3.73
2022-12-25T11:56:11.426Z,4.60
2022-12-25T11:59:03.519Z,4.57
2022-12-25T12:01:53.883Z,4.17
2022-12-25T12:04:44.710Z,3.70
2022-12-25T12:07:33.837Z,4.53
2022-12-25T12:10:25.716Z,5.00
2022-12-25T12:13:27.792Z,4.23
2022-12-25T12:16:14.344Z,4.33
2022-12-25T12:19:12.580Z,3.97
2022-12-25T12:22:02.007Z,4.50
2022-12-25T12:24:55.240Z,4.63
2022-12-25T12:27:42.755Z,4.67
2022-12-25T12:30:34.755Z,5.10
2022-12-25T12:33:22.174Z,5.53
2022-12-25T12:36:12.542Z,6.13
2022-12-25T12:39:01.657Z,6.23
2022-12-25T12:41:50.367Z,6.47
2022-12-25T12:44:36.805Z,6.27
2022-12-25T12:47:38.429Z,5.30
2022-12-25T12:50:32.481Z,4.50
2022-12-25T12:53:30.352Z,4.53
2022-12-25T12:56:19.736Z,3.83
2022-12-25T12:59:06.379Z,4.13
2022-12-25T13:02:01.266Z,4.10
2022-12-25T13:05:02.788Z,3.80
2022-12-25T13:08:00.636Z,3.63
2022-12-25T13:10:51.531Z,3.30
2022-12-25T13:13:41.817Z,3.00
2022-12-25T13:16:34.211Z,3.40
2022-12-25T13:19:23.372Z,3.60
2022-12-25T13:22:25.187Z,3.70
2022-12-25T13:25:20.521Z,3.90
2022-12-25T13:28:06.861Z,3.90
2022-12-25T13:30:53.320Z,3.87
2022-12-25T13:33:40.170Z,4.10
2022-12-25T13:36:28.105Z,3.70
2022-12-25T13:39:18.556Z,4.00
2022-12-25T13:42:09.935Z,3.97
2022-12-25T13:44:59.327Z,4.50
2022-12-25T13:47:51.427Z,4.00
2022-12-25T13:50:46.688Z,4.50
2022-12-25T13:53:33.240Z,4.30
2022-12-25T13:56:21.132Z,5.47
2022-12-25T13:59:07.848Z,5.50
2022-12-25T14:01:57.060Z,5.83
2022-12-25T14:04:46.206Z,6.27
2022-12-25T14:07:34.777Z,4.80
2022-12-25T14:10:22.737Z,5.03
2022-12-25T14:13:15.620Z,4.93
2022-12-25T14:16:02.660Z,5.10
2022-12-25T14:18:55.309Z,5.30
2022-12-25T14:21:49.238Z,4.87
2022-12-25T14:24:36.282Z,4.83
2022-12-25T14:27:25.137Z,5.00
2022-12-25T14:30:15.335Z,4.77
2022-12-25T14:33:02.696Z,4.90
2022-12-25T14:35:49.937Z,4.60
2022-12-25T14:38:36.416Z,4.63
2022-12-25T14:41:33.551Z,5.33
2022-12-25T14:44:32.010Z,4.90
2022-12-25T14:47:22.106Z,4.60
2022-12-25T14:50:16.425Z,4.70
2022-12-25T14:53:02.903Z,4.73
2022-12-25T14:55:51.059Z,4.70
2022-12-25T14:58:42.410Z,4.97
2022-12-25T15:01:32.647Z,5.20
2022-12-25T15:04:22.337Z,5.50
2022-12-25T15:07:32.173Z,5.83
2022-12-25T15:10:58.185Z,5.50
2022-12-25T15:13:26.314Z,5.73
2022-12-25T15:16:16.336Z,5.37
2022-12-25T15:19:02.793Z,5.60
2022-12-25T15:21:50.721Z,5.67
2022-12-25T15:24:37.232Z,6.10
2022-12-25T15:27:23.930Z,5.70
2022-12-25T15:30:11.425Z,5.80
2022-12-25T15:32:58.334Z,5.67
2022-12-25T15:35:45.386Z,6.07
2022-12-25T15:38:36.561Z,6.30
2022-12-25T15:41:44.722Z,6.50
2022-12-25T15:44:31.395Z,6.80
2022-12-25T15:47:20.089Z,7.50
2022-12-25T15:50:07.973Z,6.77
2022-12-25T15:52:54.218Z,6.50
2022-12-25T15:55:42.385Z,6.50
2022-12-25T15:58:29.307Z,5.83
2022-12-25T16:01:16.673Z,7.73
2022-12-25T16:04:03.208Z,7.53
2022-12-25T16:06:50.592Z,7.27
2022-12-25T16:09:36.950Z,9.87
2022-12-25T16:12:24.588Z,9.63
2022-12-25T16:15:12.777Z,10.77
2022-12-25T16:17:59.114Z,10.40
2022-12-25T16:20:53.061Z,9.47
2022-12-25T16:23:39.706Z,9.87
2022-12-25T16:26:25.961Z,9.20
2022-12-25T16:29:13.864Z,8.50
2022-12-25T16:32:00.703Z,8.87
2022-12-25T16:34:49.742Z,7.87
2022-12-25T16:37:36.810Z,8.00
2022-12-25T16:40:23.493Z,8.07
2022-12-25T16:43:10.167Z,6.90
2022-12-25T16:45:58.287Z,6.77
2022-12-25T16:48:45.420Z,6.70
2022-12-25T16:51:31.784Z,6.50
2022-12-25T16:54:18.372Z,5.77
2022-12-25T16:57:05.414Z,6.07
2022-12-25T16:59:52.089Z,5.23
2022-12-25T17:02:41.417Z,6.07
2022-12-25T17:05:28.050Z,5.40
2022-12-25T17:08:14.547Z,4.70
2022-12-25T17:11:04.772Z,4.87
2022-12-25T17:13:51.462Z,4.67
2022-12-25T17:16:39.968Z,3.67
2022-12-25T17:19:28.391Z,3.30
2022-12-25T17:22:14.626Z,3.40
2022-12-25T17:25:01.099Z,3.40
2022-12-25T17:27:50.528Z,3.33
2022-12-25T17:30:37.116Z,3.80
2022-12-25T17:33:23.898Z,3.50
2022-12-25T17:36:13.698Z,3.90
2022-12-25T17:39:01.725Z,3.63
2022-12-25T17:41:50.208Z,4.53
2022-12-25T17:44:36.825Z,6.47
2022-12-25T17:47:23.317Z,7.63
2022-12-25T17:50:10.175Z,9.03
2022-12-25T17:52:58.023Z,10.87
2022-12-25T17:55:44.586Z,9.20
2022-12-25T17:58:31.022Z,7.93
2022-12-25T18:01:17.903Z,6.67
2022-12-25T18:04:06.140Z,7.57
2022-12-25T18:06:52.823Z,9.87
2022-12-25T18:09:40.453Z,8.70
2022-12-25T18:12:27.619Z,7.97
2022-12-25T18:15:13.990Z,6.90
2022-12-25T18:18:00.399Z,6.13
2022-12-25T18:20:46.734Z,6.87
2022-12-25T18:23:34.658Z,6.50
2022-12-25T18:26:22.802Z,5.17
2022-12-25T18:29:09.141Z,5.07
2022-12-25T18:31:55.989Z,5.40
2022-12-25T18:34:42.602Z,5.70
2022-12-25T18:37:31.924Z,6.77
2022-12-25T18:40:20.765Z,6.07
2022-12-25T18:43:09.232Z,7.70
2022-12-25T18:45:59.647Z,6.03
2022-12-25T18:48:46.569Z,5.70
2022-12-25T18:51:36.816Z,5.80
2022-12-25T18:54:23.413Z,6.77
2022-12-25T18:57:09.928Z,6.33
2022-12-25T18:59:58.239Z,6.03
2022-12-25T19:02:44.854Z,5.57
2022-12-25T19:05:31.610Z,5.87
2022-12-25T19:08:18.271Z,5.50
2022-12-25T19:11:08.608Z,5.70
2022-12-25T19:13:55.108Z,5.77
2022-12-25T19:16:42.939Z,6.53
2022-12-25T19:19:29.454Z,9.80
2022-12-25T19:22:16.302Z,9.17
2022-12-25T19:25:03.103Z,7.17
2022-12-25T19:27:49.617Z,9.73
2022-12-25T19:30:35.893Z,8.07
2022-12-25T19:33:23.681Z,7.13
2022-12-25T19:36:12.810Z,7.07
2022-12-25T19:38:59.432Z,7.67
2022-12-25T19:41:46.159Z,7.93
2022-12-25T19:44:32.556Z,9.03
2022-12-25T19:47:18.869Z,8.13
2022-12-25T19:50:07.797Z,7.60
2022-12-25T19:52:54.758Z,8.30
2022-12-25T19:55:41.165Z,6.93
2022-12-25T19:58:27.545Z,6.47
2022-12-25T20:01:16.304Z,7.00
2022-12-25T20:04:03.168Z,7.40
2022-12-25T20:06:50.880Z,6.90
2022-12-25T20:09:37.382Z,6.77
2022-12-25T20:12:23.946Z,7.13
2022-12-25T20:15:11.399Z,6.90
2022-12-25T20:17:57.794Z,7.47
2022-12-25T20:20:44.696Z,9.07
2022-12-25T20:23:33.256Z,9.10
2022-12-25T20:26:21.379Z,8.97
2022-12-25T20:29:08.179Z,9.17
2022-12-25T20:31:54.849Z,7.77
2022-12-25T20:34:41.619Z,8.03
2022-12-25T20:37:28.008Z,8.07
2022-12-25T20:40:15.962Z,9.63
2022-12-25T20:43:02.425Z,10.57
2022-12-25T20:45:52.625Z,8.87
2022-12-25T20:48:39.335Z,9.70
2022-12-25T20:51:27.904Z,8.40
2022-12-25T20:54:14.904Z,8.57
2022-12-25T20:57:02.581Z,9.00
2022-12-25T20:59:49.329Z,8.97
2022-12-25T21:02:36.702Z,8.90
2022-12-25T21:05:23.529Z,8.57
2022-12-25T21:08:09.905Z,9.00
2022-12-25T21:11:00.880Z,9.87
2022-12-25T21:13:49.068Z,9.83
2022-12-25T21:16:35.720Z,8.40
2022-12-25T21:19:22.175Z,8.50
2022-12-25T21:22:08.503Z,9.17
2022-12-25T21:24:54.889Z,8.80
2022-12-25T21:27:41.829Z,8.90
2022-12-25T21:30:29.654Z,9.17
2022-12-25T21:33:34.018Z,7.67
2022-12-25T21:36:23.734Z,8.73
2022-12-25T21:39:12.152Z,10.73
2022-12-25T21:41:59.573Z,9.83
2022-12-25T21:44:46.285Z,10.43
2022-12-25T21:48:01.929Z,10.17
2022-12-25T21:50:57.686Z,6.57
2022-12-25T21:53:44.425Z,6.23
2022-12-25T21:56:31.465Z,5.80
2022-12-25T21:59:19.987Z,5.90
2022-12-25T22:02:11.378Z,5.90
2022-12-25T22:04:59.461Z,6.10
2022-12-25T22:07:45.162Z,6.63
2022-12-25T22:10:32.058Z,6.33
2022-12-25T22:13:35.966Z,6.27
2022-12-25T22:16:39.980Z,5.83
2022-12-25T22:19:42.731Z,6.53
2022-12-25T22:22:31.969Z,5.93
2022-12-25T22:25:19.357Z,5.47
2022-12-25T22:28:06.220Z,5.80
2022-12-25T22:30:53.029Z,5.73
2022-12-25T22:33:39.889Z,5.37
2022-12-25T22:36:26.235Z,5.67
2022-12-25T22:39:13.992Z,5.33
2022-12-25T22:42:01.750Z,5.73
2022-12-25T22:44:48.457Z,5.43
2022-12-25T22:47:35.010Z,5.63
2022-12-25T22:50:22.177Z,5.90
2022-12-25T22:53:09.273Z,5.40
2022-12-25T22:55:57.358Z,5.57
2022-12-25T22:58:44.118Z,5.30
2022-12-25T23:01:30.435Z,5.33
2022-12-25T23:04:17.888Z,5.80
2022-12-25T23:07:04.667Z,5.37
2022-12-25T23:09:51.165Z,6.30
2022-12-25T23:12:56.942Z,7.03
2022-12-25T23:15:45.933Z,5.57
2022-12-25T23:19:04.576Z,5.07
2022-12-25T23:22:08.619Z,5.57
2022-12-25T23:25:12.830Z,8.57
2022-12-25T23:28:00.755Z,12.47
2022-12-25T23:30:46.691Z,12.03
2022-12-25T23:33:33.017Z,13.77
2022-12-25T23:36:19.526Z,8.37
2022-12-25T23:39:10.045Z,6.63
2022-12-25T23:41:57.680Z,6.20
2022-12-25T23:44:45.516Z,5.20
2022-12-25T23:47:32.011Z,7.23
2022-12-25T23:50:18.473Z,4.03
2022-12-25T23:53:05.204Z,4.97
2022-12-25T23:55:55.587Z,4.20
2022-12-25T23:58:45.251Z,4.27
